createdAt,value
2023-05-24T00:02:14.160Z,101674.28
2023-05-24T00:05:18.796Z,101674.28
2023-05-24T00:08:21.802Z,101674.28
2023-05-24T00:11:24.745Z,101677.00
2023-05-24T00:14:27.667Z,101680.53
2023-05-24T00:17:32.256Z,101682.41
2023-05-24T00:20:35.258Z,101677.94
2023-05-24T00:23:38.680Z,101678.03
2023-05-24T00:26:41.628Z,101677.06
2023-05-24T00:29:44.596Z,101675.34
2023-05-24T00:32:48.857Z,101670.06
2023-05-24T00:35:56.215Z,101670.94
2023-05-24T00:38:59.169Z,101669.22
2023-05-24T00:42:02.207Z,101668.25
2023-05-24T00:45:06.369Z,101666.53
2023-05-24T00:48:11.319Z,101666.53
2023-05-24T00:51:14.837Z,101670.13
2023-05-24T00:54:17.759Z,101670.13
2023-05-24T00:57:21.673Z,101680.81
2023-05-24T01:00:25.593Z,101674.66
2023-05-24T01:03:30.795Z,101672.88
2023-05-24T01:06:44.856Z,101672.94
2023-05-24T01:10:00.734Z,101671.19
2023-05-24T01:13:09.913Z,101678.31
2023-05-24T01:16:18.794Z,101673.84
2023-05-24T01:19:43.229Z,101672.09
2023-05-24T01:23:18.988Z,101684.53
2023-05-24T01:26:38.440Z,101677.44
2023-05-24T01:29:43.955Z,101678.31
2023-05-24T01:32:47.178Z,101686.31
2023-05-24T01:35:50.191Z,101689.00
2023-05-24T01:38:53.616Z,101685.56
2023-05-24T01:42:06.275Z,101687.28
2023-05-24T01:45:18.746Z,101696.25
2023-05-24T01:48:32.852Z,101687.34
2023-05-24T01:51:41.186Z,101693.56
2023-05-24T01:54:50.438Z,101693.66
2023-05-24T01:57:55.576Z,101694.56
2023-05-24T02:01:00.645Z,101695.44
2023-05-24T02:04:04.077Z,101700.78
2023-05-24T02:07:07.024Z,101699.91
2023-05-24T02:10:10.851Z,101704.38
2023-05-24T02:13:13.779Z,101697.28
2023-05-24T02:16:18.676Z,101702.63
2023-05-24T02:19:22.088Z,101700.03
2023-05-24T02:22:24.937Z,101712.44
2023-05-24T02:25:28.600Z,101698.22
2023-05-24T02:28:32.394Z,101699.16
2023-05-24T02:31:36.914Z,101698.28
2023-05-24T02:34:39.928Z,101700.06
2023-05-24T02:37:42.801Z,101701.88
2023-05-24T02:40:45.753Z,101703.63
2023-05-24T02:43:49.399Z,101695.69
2023-05-24T02:46:53.824Z,101705.41
2023-05-24T02:49:57.054Z,101700.06
2023-05-24T02:53:00.064Z,101706.38
2023-05-24T02:56:03.153Z,101715.28
2023-05-24T02:59:08.183Z,101707.34
2023-05-24T03:02:14.891Z,101713.56
2023-05-24T03:05:18.301Z,101715.34
2023-05-24T03:08:21.500Z,101711.81
2023-05-24T03:11:24.641Z,101712.75
2023-05-24T03:14:27.544Z,101710.09
2023-05-24T03:17:31.816Z,101704.75
2023-05-24T03:20:34.950Z,101710.09
2023-05-24T03:23:37.942Z,101710.09
2023-05-24T03:26:41.006Z,101718.94
2023-05-24T03:29:44.966Z,101710.09
2023-05-24T03:32:50.254Z,101712.75
2023-05-24T03:35:53.190Z,101719.00
2023-05-24T03:38:58.320Z,101714.63
2023-05-24T03:42:02.041Z,101709.28
2023-05-24T03:45:06.302Z,101711.06
2023-05-24T03:48:10.537Z,101711.06
2023-05-24T03:51:13.523Z,101722.66
2023-05-24T03:54:17.904Z,101718.22
2023-05-24T03:57:20.911Z,101723.53
2023-05-24T04:00:23.951Z,101726.22
2023-05-24T04:03:28.508Z,101736.88
2023-05-24T04:06:32.089Z,101724.47
2023-05-24T04:09:35.295Z,101728.88
2023-05-24T04:12:39.698Z,101735.13
2023-05-24T04:15:43.440Z,101736.00
2023-05-24T04:18:48.316Z,101738.75
2023-05-24T04:21:51.341Z,101737.00
2023-05-24T04:24:54.267Z,101737.00
2023-05-24T04:27:57.251Z,101740.59
2023-05-24T04:31:00.614Z,101740.59
2023-05-24T04:34:07.438Z,101747.66
2023-05-24T04:37:10.839Z,101745.94
2023-05-24T04:40:14.144Z,101754.84
2023-05-24T04:43:16.992Z,101760.16
2023-05-24T04:46:20.011Z,101769.03
2023-05-24T04:49:24.443Z,101766.34
2023-05-24T04:52:27.747Z,101761.00
2023-05-24T04:55:31.016Z,101767.31
2023-05-24T04:58:35.936Z,101775.38
2023-05-24T05:01:40.446Z,101776.22
2023-05-24T05:04:44.716Z,101775.38
2023-05-24T05:07:47.892Z,101775.38
2023-05-24T05:10:50.764Z,101778.94
2023-05-24T05:13:54.164Z,101779.84
2023-05-24T05:16:57.191Z,101778.94
2023-05-24T05:20:01.676Z,101784.28
2023-05-24T05:23:04.576Z,101784.28
2023-05-24T05:26:07.840Z,101790.50
2023-05-24T05:29:10.878Z,101791.38
2023-05-24T05:32:13.828Z,101791.38
2023-05-24T05:35:18.091Z,101795.84
2023-05-24T05:38:21.000Z,101801.19
2023-05-24T05:41:23.908Z,101801.19
2023-05-24T05:44:26.789Z,101812.78
2023-05-24T05:47:29.728Z,101821.72
2023-05-24T05:50:34.158Z,101815.44
2023-05-24T05:53:37.119Z,101820.78
2023-05-24T05:56:45.189Z,101817.19
2023-05-24T05:59:48.076Z,101827.88
2023-05-24T06:02:51.060Z,101824.25
2023-05-24T06:05:55.319Z,101826.91
2023-05-24T06:08:58.163Z,101824.25
2023-05-24T06:12:01.261Z,101819.72
2023-05-24T06:15:06.484Z,101818.00
2023-05-24T06:18:09.352Z,101826.91
2023-05-24T06:21:13.782Z,101826.09
2023-05-24T06:24:20.421Z,101827.88
2023-05-24T06:27:23.701Z,101826.13
2023-05-24T06:30:27.106Z,101835.06
2023-05-24T06:33:30.070Z,101835.97
2023-05-24T06:36:35.982Z,101839.59
2023-05-24T06:39:38.921Z,101839.63
2023-05-24T06:42:41.748Z,101845.03
2023-05-24T06:45:44.865Z,101850.38
2023-05-24T06:48:47.846Z,101854.00
2023-05-24T06:51:52.877Z,101861.16
2023-05-24T06:54:55.727Z,101851.41
2023-05-24T06:57:58.563Z,101862.97
2023-05-24T07:01:01.500Z,101861.16
2023-05-24T07:04:04.561Z,101869.19
2023-05-24T07:07:09.180Z,101876.22
2023-05-24T07:10:12.977Z,101864.69
2023-05-24T07:13:15.957Z,101870.03
2023-05-24T07:16:19.177Z,101872.66
2023-05-24T07:19:22.517Z,101873.50
2023-05-24T07:22:28.664Z,101869.03
2023-05-24T07:25:32.721Z,101873.47
2023-05-24T07:28:37.778Z,101875.25
2023-05-24T07:31:40.664Z,101881.47
2023-05-24T07:34:43.547Z,101870.81
2023-05-24T07:37:47.893Z,101880.53
2023-05-24T07:40:51.018Z,101876.97
2023-05-24T07:43:54.631Z,101888.53
2023-05-24T07:46:57.664Z,101885.00
2023-05-24T07:50:00.552Z,101886.81
2023-05-24T07:53:05.293Z,101888.53
2023-05-24T07:56:09.898Z,101892.16
2023-05-24T07:59:12.866Z,101898.34
2023-05-24T08:02:16.887Z,101907.22
2023-05-24T08:05:19.813Z,101908.16
2023-05-24T08:08:24.437Z,101903.66
2023-05-24T08:11:27.431Z,101901.94
2023-05-24T08:14:30.282Z,101903.66
2023-05-24T08:17:33.213Z,101900.09
2023-05-24T08:20:36.641Z,101909.88
2023-05-24T08:23:41.525Z,101912.56
2023-05-24T08:26:45.217Z,101906.34
2023-05-24T08:29:48.073Z,101914.34
2023-05-24T08:32:51.128Z,101908.16
2023-05-24T08:35:54.186Z,101915.22
2023-05-24T08:38:59.647Z,101907.22
2023-05-24T08:45:12.084Z,101921.44
2023-05-24T08:48:16.147Z,101928.56
2023-05-24T08:51:19.371Z,101925.91
2023-05-24T08:54:23.992Z,101931.22
2023-05-24T08:57:27.996Z,101933.88
2023-05-24T09:00:30.963Z,101947.16
2023-05-24T09:03:35.144Z,101937.28
2023-05-24T09:06:38.126Z,101936.34
2023-05-24T09:09:45.353Z,101942.56
2023-05-24T09:12:52.800Z,101938.09
2023-05-24T09:15:55.694Z,101939.00
2023-05-24T09:18:58.591Z,101940.72
2023-05-24T09:22:02.082Z,101941.53
2023-05-24T09:25:07.813Z,101947.75
2023-05-24T09:28:10.643Z,101946.84
2023-05-24T09:31:13.811Z,101946.00
2023-05-24T09:34:17.786Z,101935.53
2023-05-24T09:37:26.894Z,101942.88
2023-05-24T09:40:33.608Z,101950.13
2023-05-24T09:43:48.114Z,101953.13
2023-05-24T09:46:51.539Z,101951.47
2023-05-24T09:49:54.468Z,101949.78
2023-05-24T09:52:57.406Z,101953.47
2023-05-24T09:56:02.694Z,101953.56
2023-05-24T09:59:09.941Z,101950.97
2023-05-24T10:02:13.545Z,101946.56
2023-05-24T10:05:16.741Z,101953.63
2023-05-24T10:08:20.462Z,101950.16
2023-05-24T10:11:25.177Z,101955.50
2023-05-24T10:14:30.650Z,101963.56
2023-05-24T10:17:33.571Z,101961.84
2023-05-24T10:20:36.762Z,101961.84
2023-05-24T10:23:43.874Z,101962.84
2023-05-24T10:26:50.120Z,101963.75
2023-05-24T10:30:12.970Z,101965.53
2023-05-24T10:33:18.431Z,101973.56
2023-05-24T10:36:21.396Z,101971.03
2023-05-24T10:39:24.291Z,101980.03
2023-05-24T10:42:28.661Z,101972.03
2023-05-24T10:45:35.611Z,101976.53
2023-05-24T10:48:40.539Z,101976.53
2023-05-24T10:51:43.778Z,101979.19
2023-05-24T10:55:08.036Z,101974.69
2023-05-24T10:58:13.177Z,101978.28
2023-05-24T11:01:26.615Z,101978.28
2023-05-24T11:04:32.600Z,101972.91
2023-05-24T11:07:42.764Z,101972.03
2023-05-24T11:10:47.597Z,101970.19
2023-05-24T11:13:57.322Z,101969.25
2023-05-24T11:17:01.584Z,101969.31
2023-05-24T11:20:05.364Z,101975.53
2023-05-24T11:23:10.351Z,101973.75
2023-05-24T11:26:13.305Z,101973.78
2023-05-24T11:29:20.892Z,101972.91
2023-05-24T11:32:25.152Z,101972.88
2023-05-24T11:35:29.836Z,101977.38
2023-05-24T11:38:32.983Z,101979.16
2023-05-24T11:41:39.802Z,101979.09
2023-05-24T11:44:44.598Z,101973.75
2023-05-24T11:47:49.509Z,101983.53
2023-05-24T11:50:52.531Z,101984.44
2023-05-24T11:53:56.603Z,101977.38
2023-05-24T11:56:59.552Z,101981.75
2023-05-24T12:00:04.922Z,101982.56
2023-05-24T12:03:10.036Z,101982.56
2023-05-24T12:06:13.223Z,101987.00
2023-05-24T12:09:18.060Z,101984.34
2023-05-24T12:12:30.452Z,101983.47
2023-05-24T12:15:38.332Z,101983.47
2023-05-24T12:18:48.340Z,101979.00
2023-05-24T12:21:54.079Z,101984.34
2023-05-24T12:24:58.093Z,101979.00
2023-05-24T12:28:00.994Z,101986.06
2023-05-24T12:31:06.624Z,101989.56
2023-05-24T12:34:12.785Z,101985.03
2023-05-24T12:37:16.510Z,101988.66
2023-05-24T12:40:21.301Z,101987.00
2023-05-24T12:43:24.364Z,101992.38
2023-05-24T12:46:28.568Z,101993.31
2023-05-24T12:49:32.605Z,101995.03
2023-05-24T12:52:35.574Z,101993.31
2023-05-24T12:55:38.416Z,101994.13
2023-05-24T12:58:41.416Z,101997.63
2023-05-24T13:01:50.559Z,101998.44
2023-05-24T13:04:53.488Z,102001.91
2023-05-24T13:07:57.436Z,101999.25
2023-05-24T13:11:00.278Z,101997.53
2023-05-24T13:14:04.086Z,101995.69
2023-05-24T13:17:09.032Z,102003.63
2023-05-24T13:20:12.584Z,101990.22
2023-05-24T13:23:15.526Z,101997.34
2023-05-24T13:26:18.750Z,101990.22
2023-05-24T13:29:36.543Z,101998.28
2023-05-24T13:32:46.084Z,102001.88
2023-05-24T13:35:49.721Z,102001.88
2023-05-24T13:38:59.508Z,101992.00
2023-05-24T13:42:15.701Z,102001.78
2023-05-24T13:45:18.744Z,102008.75
2023-05-24T13:48:23.042Z,102001.88
2023-05-24T13:51:27.072Z,102001.16
2023-05-24T13:54:29.987Z,101999.41
2023-05-24T13:57:49.519Z,102005.66
2023-05-24T14:00:53.147Z,102001.19
2023-05-24T14:03:57.759Z,101999.53
2023-05-24T14:07:00.624Z,101997.81
2023-05-24T14:10:03.618Z,101993.41
2023-05-24T14:16:13.570Z,101990.81
2023-05-24T14:19:17.866Z,101997.00
2023-05-24T14:22:22.751Z,101994.28
2023-05-24T14:25:25.598Z,101994.25
2023-05-24T14:28:28.428Z,101995.13
2023-05-24T14:31:31.557Z,101991.56
2023-05-24T14:34:35.841Z,101990.81
2023-05-24T14:37:38.743Z,101997.09
2023-05-24T14:40:42.385Z,102008.66
2023-05-24T14:43:45.349Z,102001.56
2023-05-24T14:46:48.964Z,102001.69
2023-05-24T14:49:53.171Z,102006.94
2023-05-24T14:52:56.184Z,101998.91
2023-05-24T14:55:59.184Z,102010.38
2023-05-24T14:59:02.287Z,102000.59
2023-05-24T15:02:05.297Z,102002.31
2023-05-24T15:05:10.093Z,101997.88
2023-05-24T15:08:13.758Z,101998.75
2023-05-24T15:11:17.587Z,101997.81
2023-05-24T15:14:20.759Z,102004.97
2023-05-24T15:17:23.778Z,102005.81
2023-05-24T15:20:28.146Z,102005.78
2023-05-24T15:23:31.273Z,102003.03
2023-05-24T15:26:34.431Z,102005.66
2023-05-24T15:29:37.462Z,102002.94
2023-05-24T15:32:40.588Z,102000.22
2023-05-24T15:35:44.897Z,102005.53
2023-05-24T15:38:47.824Z,101995.00
2023-05-24T15:41:50.843Z,101998.53
2023-05-24T15:44:53.717Z,102003.00
2023-05-24T15:47:56.943Z,102002.94
2023-05-24T15:51:39.807Z,102001.16
2023-05-24T15:54:24.168Z,102000.28
2023-05-24T15:57:27.091Z,101998.50
2023-05-24T16:00:30.157Z,101995.81
2023-05-24T16:03:33.222Z,102003.81
2023-05-24T16:06:38.189Z,102001.16
2023-05-24T16:09:41.929Z,102000.34
2023-05-24T16:12:46.010Z,101993.16
2023-05-24T16:15:51.564Z,101996.72
2023-05-24T16:18:54.503Z,101996.72
2023-05-24T16:21:58.775Z,102004.66
2023-05-24T16:25:01.676Z,102005.56
2023-05-24T16:28:04.546Z,102002.88
2023-05-24T16:31:07.438Z,102009.09
2023-05-24T16:34:10.327Z,102007.31
2023-05-24T16:37:14.566Z,102005.56
2023-05-24T16:40:17.730Z,102006.44
2023-05-24T16:43:21.584Z,102005.53
2023-05-24T16:46:24.590Z,102009.84
2023-05-24T16:49:27.473Z,102012.53
2023-05-24T16:52:31.749Z,102006.28
2023-05-24T16:55:34.699Z,102011.63
2023-05-24T16:58:37.768Z,102005.34
2023-05-24T17:01:40.717Z,102009.78
2023-05-24T17:04:43.666Z,102015.94
2023-05-24T17:07:47.932Z,102010.59
2023-05-24T17:10:55.823Z,102013.25
2023-05-24T17:13:58.697Z,102015.94
2023-05-24T17:17:01.574Z,102016.84
2023-05-24T17:20:05.380Z,102024.84
2023-05-24T17:23:09.665Z,102016.00
2023-05-24T17:29:17.690Z,102020.53
2023-05-24T17:32:20.519Z,102022.34
2023-05-24T17:35:23.402Z,102022.38
2023-05-24T17:38:28.762Z,102025.03
2023-05-24T17:41:32.444Z,102030.38
2023-05-24T17:44:35.485Z,102025.03
2023-05-24T17:47:38.389Z,102028.59
2023-05-24T17:50:41.414Z,102033.97
2023-05-24T17:53:45.657Z,102041.03
2023-05-24T17:56:48.552Z,102040.19
2023-05-24T17:59:51.466Z,102041.09
2023-05-24T18:02:54.434Z,102045.56
2023-05-24T18:05:57.387Z,102042.91
2023-05-24T18:09:01.628Z,102054.50
2023-05-24T18:12:05.663Z,102050.06
2023-05-24T18:15:09.229Z,102061.63
2023-05-24T18:18:13.578Z,102051.84
2023-05-24T18:21:16.544Z,102058.00
2023-05-24T18:24:21.053Z,102055.31
2023-05-24T18:27:23.902Z,102051.84
2023-05-24T18:30:26.871Z,102066.00
2023-05-24T18:33:29.770Z,102072.16
2023-05-24T18:36:33.103Z,102063.25
2023-05-24T18:39:37.668Z,102073.03
2023-05-24T18:42:40.499Z,102070.34
2023-05-24T18:45:43.552Z,102075.63
2023-05-24T18:48:46.583Z,102072.09
2023-05-24T18:51:49.441Z,102080.97
2023-05-24T18:54:54.448Z,102080.09
2023-05-24T18:57:57.296Z,102085.38
2023-05-24T19:01:00.222Z,102099.59
2023-05-24T19:04:03.149Z,102099.53
2023-05-24T19:07:06.956Z,102096.91
2023-05-24T19:10:11.976Z,102098.69
2023-05-24T19:13:15.684Z,102088.91
2023-05-24T19:16:18.729Z,102094.19
2023-05-24T19:19:21.651Z,102100.41
2023-05-24T19:22:26.156Z,102104.84
2023-05-24T19:25:31.220Z,102105.75
2023-05-24T19:28:37.724Z,102103.97
2023-05-24T19:31:41.076Z,102112.84
2023-05-24T19:34:43.972Z,102113.69
2023-05-24T19:37:46.862Z,102123.44
2023-05-24T19:40:51.107Z,102121.66
2023-05-24T19:43:56.048Z,102124.34
2023-05-24T19:46:59.194Z,102116.31
2023-05-24T19:50:02.092Z,102117.22
2023-05-24T19:53:04.927Z,102118.94
2023-05-24T19:56:09.191Z,102129.59
2023-05-24T19:59:12.075Z,102134.03
2023-05-24T20:02:15.169Z,102141.16
2023-05-24T20:05:18.391Z,102136.72
2023-05-24T20:08:21.838Z,102143.78
2023-05-24T20:11:26.517Z,102138.44
2023-05-24T20:14:31.370Z,102144.66
2023-05-24T20:17:34.689Z,102145.56
2023-05-24T20:20:38.369Z,102145.56
2023-05-24T20:23:41.412Z,102137.56
2023-05-24T20:26:45.635Z,102132.22
2023-05-24T20:29:48.463Z,102131.38
2023-05-24T20:32:51.315Z,102136.72
2023-05-24T20:35:54.435Z,102134.94
2023-05-24T20:38:57.337Z,102129.59
2023-05-24T20:42:02.230Z,102137.63
2023-05-24T20:45:06.419Z,102136.72
2023-05-24T20:48:09.488Z,102133.16
2023-05-24T20:51:12.399Z,102130.53
2023-05-24T20:54:15.518Z,102138.56
2023-05-24T20:57:19.828Z,102141.22
2023-05-24T21:00:22.687Z,102141.16
2023-05-24T21:03:25.728Z,102142.06
2023-05-24T21:06:28.838Z,102140.28
2023-05-24T21:09:31.695Z,102144.72
2023-05-24T21:12:35.968Z,102150.13
2023-05-24T21:15:39.220Z,102148.28
2023-05-24T21:18:42.175Z,102162.56
2023-05-24T21:21:45.043Z,102162.50
2023-05-24T21:24:47.911Z,102173.22
2023-05-24T21:27:52.173Z,102173.19
2023-05-24T21:30:55.062Z,102173.19
2023-05-24T21:33:57.982Z,102182.97
2023-05-24T21:37:01.995Z,102175.91
2023-05-24T21:40:06.124Z,102183.03
2023-05-24T21:43:12.308Z,102184.81
2023-05-24T21:46:15.296Z,102191.91
2023-05-24T21:49:18.967Z,102187.47
2023-05-24T21:52:22.013Z,102189.25
2023-05-24T21:55:24.917Z,102188.38
2023-05-24T21:58:29.270Z,102191.03
2023-05-24T22:01:32.155Z,102184.81
2023-05-24T22:04:35.040Z,102190.13
2023-05-24T22:07:38.047Z,102188.38
2023-05-24T22:10:40.862Z,102199.03
2023-05-24T22:13:45.034Z,102200.81
2023-05-24T22:16:47.990Z,102206.16
2023-05-24T22:19:53.045Z,102200.81
2023-05-24T22:22:55.979Z,102199.03
2023-05-24T22:25:58.862Z,102198.19
2023-05-24T22:29:03.831Z,102199.94
2023-05-24T22:32:07.108Z,102204.38
2023-05-24T22:35:10.760Z,102204.38
2023-05-24T22:38:13.794Z,102203.53
2023-05-24T22:41:16.647Z,102205.31
2023-05-24T22:44:21.335Z,102201.72
2023-05-24T22:47:24.257Z,102204.38
2023-05-24T22:50:27.311Z,102212.38
2023-05-24T22:53:30.261Z,102210.59
2023-05-24T22:56:35.335Z,102215.94
2023-05-24T22:59:39.859Z,102205.25
2023-05-24T23:02:42.807Z,102210.59
2023-05-24T23:05:45.881Z,102209.72
2023-05-24T23:08:48.956Z,102211.47
2023-05-24T23:11:54.624Z,102208.88
2023-05-24T23:14:59.472Z,102207.97
2023-05-24T23:18:02.904Z,102208.88
2023-05-24T23:21:05.937Z,102205.31
2023-05-24T23:24:14.237Z,102206.22
2023-05-24T23:27:17.252Z,102205.31
2023-05-24T23:30:21.949Z,102205.31
2023-05-24T23:33:24.841Z,102207.97
2023-05-24T23:36:27.684Z,102210.66
2023-05-24T23:39:30.872Z,102211.56
2023-05-24T23:42:33.719Z,102214.22
2023-05-24T23:45:37.925Z,102207.97
2023-05-24T23:48:40.780Z,102219.56
2023-05-24T23:51:43.836Z,102229.31
2023-05-24T23:54:46.889Z,102226.72
2023-05-24T23:57:49.829Z,102221.38
